createdAt,value
2018-12-31T00:00:56.255Z,18.67
2018-12-31T00:01:56.535Z,18.66
2018-12-31T00:02:56.184Z,18.66
2018-12-31T00:03:56.521Z,18.66
2018-12-31T00:04:56.309Z,18.64
2018-12-31T00:05:56.132Z,18.63
2018-12-31T00:06:56.078Z,18.63
2018-12-31T00:07:56.507Z,18.62
2018-12-31T00:08:56.334Z,18.62
2018-12-31T00:09:56.071Z,18.6
2018-12-31T00:10:56.263Z,18.62
2018-12-31T00:11:56.088Z,18.57
2018-12-31T00:12:56.176Z,18.58
2018-12-31T00:13:56.073Z,18.6
2018-12-31T00:14:56.012Z,18.58
2018-12-31T00:15:56.394Z,18.58
2018-12-31T00:16:56.737Z,18.56
2018-12-31T00:17:56.184Z,18.56
2018-12-31T00:18:56.098Z,18.56
2018-12-31T00:19:56.106Z,18.54
2018-12-31T00:20:56.141Z,18.56
2018-12-31T00:21:56.220Z,18.53
2018-12-31T00:22:56.377Z,18.53
2018-12-31T00:23:56.041Z,18.53
2018-12-31T00:24:56.011Z,18.53
2018-12-31T00:25:56.251Z,18.53
2018-12-31T00:26:56.208Z,18.51
2018-12-31T00:27:56.236Z,18.51
2018-12-31T00:28:56.108Z,18.51
2018-12-31T00:29:56.187Z,18.51
2018-12-31T00:30:56.250Z,18.53
2018-12-31T00:31:56.347Z,18.5
2018-12-31T00:32:56.303Z,18.51
2018-12-31T00:33:56.034Z,18.49
2018-12-31T00:34:56.436Z,18.49
2018-12-31T00:35:56.004Z,18.5
2018-12-31T00:36:56.554Z,18.47
2018-12-31T00:37:56.142Z,18.47
2018-12-31T00:38:56.097Z,18.46
2018-12-31T00:39:56.803Z,18.46
2018-12-31T00:40:56.500Z,18.46
2018-12-31T00:41:56.673Z,18.44
2018-12-31T00:42:59.489Z,18.44
2018-12-31T00:43:56.501Z,18.44
2018-12-31T00:44:56.590Z,18.44
2018-12-31T00:45:56.120Z,18.46
2018-12-31T00:46:56.165Z,18.44
2018-12-31T00:47:56.190Z,18.43
2018-12-31T00:48:56.387Z,18.41
2018-12-31T00:49:56.877Z,18.44
2018-12-31T00:50:56.251Z,18.43
2018-12-31T00:51:56.082Z,18.41
2018-12-31T00:52:56.451Z,18.41
2018-12-31T00:53:56.163Z,18.4
2018-12-31T00:54:56.291Z,18.39
2018-12-31T00:55:56.497Z,18.41
2018-12-31T00:56:56.816Z,18.39
2018-12-31T00:57:56.508Z,18.41
2018-12-31T00:58:56.398Z,18.37
2018-12-31T00:59:56.296Z,18.37
2018-12-31T01:00:56.704Z,18.39
2018-12-31T01:01:56.274Z,18.37
2018-12-31T01:02:56.101Z,18.37
2018-12-31T01:03:56.383Z,18.36
2018-12-31T01:04:56.091Z,18.36
2018-12-31T01:05:56.155Z,18.36
2018-12-31T01:06:56.321Z,18.35
2018-12-31T01:07:56.431Z,18.36
2018-12-31T01:08:56.273Z,18.35
2018-12-31T01:09:56.106Z,18.35
2018-12-31T01:10:56.450Z,18.33
2018-12-31T01:11:56.196Z,18.33
2018-12-31T01:12:56.425Z,18.35
2018-12-31T01:13:56.484Z,18.33
2018-12-31T01:14:56.362Z,18.33
2018-12-31T01:15:56.070Z,18.35
2018-12-31T01:16:55.968Z,18.32
2018-12-31T01:17:56.599Z,18.3
2018-12-31T01:18:56.368Z,18.32
2018-12-31T01:19:56.457Z,18.3
2018-12-31T01:20:56.825Z,18.29
2018-12-31T01:21:56.484Z,18.29
2018-12-31T01:22:56.374Z,18.29
2018-12-31T01:23:56.154Z,18.3
2018-12-31T01:24:57.007Z,18.29
2018-12-31T01:25:56.319Z,18.29
2018-12-31T01:26:56.414Z,18.28
2018-12-31T01:27:56.648Z,18.29
2018-12-31T01:28:56.254Z,18.29
2018-12-31T01:29:56.153Z,18.28
2018-12-31T01:30:56.248Z,18.26
2018-12-31T01:31:56.333Z,18.28
2018-12-31T01:32:56.464Z,18.28
2018-12-31T01:33:56.909Z,18.26
2018-12-31T01:34:56.094Z,18.23
2018-12-31T01:35:56.356Z,18.26
2018-12-31T01:36:56.084Z,18.25
2018-12-31T01:37:56.166Z,18.25
2018-12-31T01:38:56.115Z,18.23
2018-12-31T01:39:56.436Z,18.25
2018-12-31T01:40:56.336Z,18.23
2018-12-31T01:41:56.339Z,18.22
2018-12-31T01:42:56.309Z,18.21
2018-12-31T01:43:56.021Z,18.22
2018-12-31T01:44:56.143Z,18.22
2018-12-31T01:45:56.366Z,18.22
2018-12-31T01:46:56.217Z,18.23
2018-12-31T01:47:56.060Z,18.21
2018-12-31T01:48:56.165Z,18.21
2018-12-31T01:49:56.259Z,18.21
2018-12-31T01:50:56.357Z,18.21
2018-12-31T01:51:56.165Z,18.21
2018-12-31T01:52:56.305Z,18.19
2018-12-31T01:53:56.195Z,18.21
2018-12-31T01:54:56.286Z,18.16
2018-12-31T01:55:56.136Z,18.16
2018-12-31T01:56:56.157Z,18.19
2018-12-31T01:57:55.914Z,18.19
2018-12-31T01:58:56.066Z,18.18
2018-12-31T01:59:56.312Z,18.19
2018-12-31T02:00:56.119Z,18.16
2018-12-31T02:01:56.214Z,18.16
2018-12-31T02:02:56.114Z,18.19
2018-12-31T02:03:56.154Z,18.15
2018-12-31T02:04:56.158Z,18.16
2018-12-31T02:05:56.198Z,18.15
2018-12-31T02:06:56.225Z,18.16
2018-12-31T02:07:56.427Z,18.12
2018-12-31T02:08:56.301Z,18.13
2018-12-31T02:09:55.966Z,18.15
2018-12-31T02:10:56.192Z,18.13
2018-12-31T02:11:56.356Z,18.12
2018-12-31T02:12:56.676Z,18.13
2018-12-31T02:13:56.525Z,18.13
2018-12-31T02:14:56.337Z,18.13
2018-12-31T02:15:56.245Z,18.13
2018-12-31T02:16:56.590Z,18.15
2018-12-31T02:17:56.136Z,18.12
2018-12-31T02:18:56.346Z,18.12
2018-12-31T02:19:56.393Z,18.11
2018-12-31T02:20:56.481Z,18.12
2018-12-31T02:21:56.274Z,18.09
2018-12-31T02:22:56.313Z,18.11
2018-12-31T02:23:56.333Z,18.09
2018-12-31T02:24:56.749Z,18.12
2018-12-31T02:25:56.113Z,18.08
2018-12-31T02:26:56.352Z,18.09
2018-12-31T02:27:56.649Z,18.11
2018-12-31T02:28:56.226Z,18.09
2018-12-31T02:29:56.239Z,18.07
2018-12-31T02:30:56.638Z,18.11
2018-12-31T02:31:56.590Z,18.08
2018-12-31T02:32:56.247Z,18.07
2018-12-31T02:33:56.604Z,18.08
2018-12-31T02:34:56.054Z,18.07
2018-12-31T02:35:56.108Z,18.05
2018-12-31T02:36:56.051Z,18.08
2018-12-31T02:37:56.509Z,18.05
2018-12-31T02:38:56.579Z,18.07
2018-12-31T02:39:56.223Z,18.07
2018-12-31T02:40:56.090Z,18.05
2018-12-31T02:41:56.015Z,18.07
2018-12-31T02:42:56.086Z,18.02
2018-12-31T02:43:56.563Z,18.04
2018-12-31T02:44:56.027Z,18.04
2018-12-31T02:45:57.051Z,18.02
2018-12-31T02:46:56.051Z,18.02
2018-12-31T02:47:55.991Z,18.04
2018-12-31T02:48:56.220Z,18.04
2018-12-31T02:49:56.071Z,18.02
2018-12-31T02:50:56.015Z,18.01
2018-12-31T02:51:56.268Z,18.02
2018-12-31T02:52:56.203Z,18.02
2018-12-31T02:53:56.173Z,18.01
2018-12-31T02:54:56.932Z,18.01
2018-12-31T02:55:56.078Z,18.01
2018-12-31T02:56:55.962Z,18.01
2018-12-31T02:57:56.968Z,18.01
2018-12-31T02:58:55.959Z,18.01
2018-12-31T02:59:56.899Z,18
2018-12-31T03:00:56.460Z,18
2018-12-31T03:01:56.378Z,18
2018-12-31T03:02:56.379Z,17.98
2018-12-31T03:03:56.252Z,18.01
2018-12-31T03:04:56.075Z,18
2018-12-31T03:05:56.860Z,18
2018-12-31T03:06:56.398Z,17.97
2018-12-31T03:07:56.111Z,17.95
2018-12-31T03:08:56.129Z,17.95
2018-12-31T03:09:56.267Z,17.97
2018-12-31T03:10:56.277Z,17.95
2018-12-31T03:11:56.311Z,17.97
2018-12-31T03:12:56.146Z,18
2018-12-31T03:13:56.424Z,17.95
2018-12-31T03:14:55.956Z,17.94
2018-12-31T03:15:56.082Z,17.95
2018-12-31T03:16:56.238Z,17.95
2018-12-31T03:17:56.404Z,17.94
2018-12-31T03:18:56.331Z,17.93
2018-12-31T03:19:55.988Z,17.94
2018-12-31T03:20:55.976Z,17.94
2018-12-31T03:21:56.196Z,17.94
2018-12-31T03:22:56.130Z,17.93
2018-12-31T03:23:56.199Z,17.93
2018-12-31T03:24:56.888Z,17.95
2018-12-31T03:25:56.192Z,17.93
2018-12-31T03:26:56.357Z,17.91
2018-12-31T03:27:56.945Z,17.89
2018-12-31T03:28:56.276Z,17.91
2018-12-31T03:29:55.967Z,17.93
2018-12-31T03:30:56.410Z,17.91
2018-12-31T03:31:56.115Z,17.93
2018-12-31T03:32:56.090Z,17.93
2018-12-31T03:33:56.255Z,17.91
2018-12-31T03:34:56.089Z,17.89
2018-12-31T03:35:56.176Z,17.91
2018-12-31T03:36:55.964Z,17.91
2018-12-31T03:37:56.164Z,17.89
2018-12-31T03:38:56.211Z,17.89
2018-12-31T03:39:56.155Z,17.91
2018-12-31T03:40:56.696Z,17.89
2018-12-31T03:41:55.923Z,17.88
2018-12-31T03:42:56.011Z,17.88
2018-12-31T03:43:56.066Z,17.89
2018-12-31T03:44:55.941Z,17.89
2018-12-31T03:45:56.220Z,17.88
2018-12-31T03:46:56.182Z,17.88
2018-12-31T03:47:56.130Z,17.87
2018-12-31T03:48:55.888Z,17.88
2018-12-31T03:49:56.048Z,17.87
2018-12-31T03:50:56.213Z,17.88
2018-12-31T03:51:56.130Z,17.89
2018-12-31T03:52:56.080Z,17.88
2018-12-31T03:53:55.942Z,17.88
2018-12-31T03:54:56.113Z,17.88
2018-12-31T03:55:56.159Z,17.85
2018-12-31T03:56:55.978Z,17.87
2018-12-31T03:57:56.590Z,17.85
2018-12-31T03:58:56.366Z,17.85
2018-12-31T03:59:56.263Z,17.85
2018-12-31T04:00:56.282Z,17.85
2018-12-31T04:01:56.088Z,17.85
2018-12-31T04:02:56.307Z,17.84
2018-12-31T04:03:56.587Z,17.85
2018-12-31T04:04:56.448Z,17.85
2018-12-31T04:05:56.456Z,17.85
2018-12-31T04:06:56.362Z,17.81
2018-12-31T04:07:56.033Z,17.82
2018-12-31T04:08:55.905Z,17.84
2018-12-31T04:09:56.414Z,17.84
2018-12-31T04:10:55.961Z,17.8
2018-12-31T04:11:56.090Z,17.82
2018-12-31T04:12:55.969Z,17.8
2018-12-31T04:13:56.886Z,17.82
2018-12-31T04:14:56.062Z,17.81
2018-12-31T04:15:56.311Z,17.81
2018-12-31T04:16:56.389Z,17.8
2018-12-31T04:17:55.887Z,17.82
2018-12-31T04:18:56.251Z,17.8
2018-12-31T04:19:56.440Z,17.82
2018-12-31T04:20:56.078Z,17.81
2018-12-31T04:21:55.986Z,17.8
2018-12-31T04:22:56.696Z,17.81
2018-12-31T04:23:56.331Z,17.81
2018-12-31T04:24:56.173Z,17.78
2018-12-31T04:25:55.853Z,17.81
2018-12-31T04:26:56.439Z,17.78
2018-12-31T04:27:56.281Z,17.8
2018-12-31T04:28:56.523Z,17.78
2018-12-31T04:29:56.160Z,17.77
2018-12-31T04:30:56.301Z,17.78
2018-12-31T04:31:55.980Z,17.81
2018-12-31T04:32:56.474Z,17.77
2018-12-31T04:33:55.910Z,17.78
2018-12-31T04:34:56.198Z,17.77
2018-12-31T04:35:56.126Z,17.76
2018-12-31T04:36:56.309Z,17.77
2018-12-31T04:37:56.367Z,17.76
2018-12-31T04:38:56.477Z,17.76
2018-12-31T04:39:56.154Z,17.76
2018-12-31T04:40:56.041Z,17.76
2018-12-31T04:41:56.396Z,17.77
2018-12-31T04:42:56.299Z,17.76
2018-12-31T04:43:55.991Z,17.77
2018-12-31T04:44:56.217Z,17.77
2018-12-31T04:45:56.659Z,17.77
2018-12-31T04:46:56.267Z,17.78
2018-12-31T04:47:55.849Z,17.8
2018-12-31T04:48:56.040Z,17.8
2018-12-31T04:49:56.653Z,17.8
2018-12-31T04:50:55.994Z,17.82
2018-12-31T04:51:56.507Z,17.8
2018-12-31T04:52:56.951Z,17.84
2018-12-31T04:53:56.375Z,17.84
2018-12-31T04:54:56.165Z,17.87
2018-12-31T04:55:56.075Z,17.85
2018-12-31T04:56:56.257Z,17.89
2018-12-31T04:57:56.810Z,17.88
2018-12-31T04:58:56.269Z,17.89
2018-12-31T04:59:56.097Z,17.91
2018-12-31T05:00:56.474Z,17.93
2018-12-31T05:01:56.022Z,17.94
2018-12-31T05:02:56.568Z,17.95
2018-12-31T05:03:56.893Z,17.97
2018-12-31T05:04:56.405Z,18
2018-12-31T05:05:56.999Z,18.01
2018-12-31T05:06:56.128Z,18.02
2018-12-31T05:07:56.168Z,18.01
2018-12-31T05:08:56.344Z,18.05
2018-12-31T05:09:56.104Z,18.05
2018-12-31T05:10:55.950Z,18.05
2018-12-31T05:11:56.359Z,18.09
2018-12-31T05:12:55.857Z,18.12
2018-12-31T05:13:55.975Z,18.12
2018-12-31T05:14:56.389Z,18.13
2018-12-31T05:15:56.016Z,18.16
2018-12-31T05:16:56.032Z,18.16
2018-12-31T05:17:55.920Z,18.19
2018-12-31T05:18:56.208Z,18.19
2018-12-31T05:19:56.379Z,18.21
2018-12-31T05:20:56.094Z,18.25
2018-12-31T05:21:55.960Z,18.23
2018-12-31T05:22:55.786Z,18.25
2018-12-31T05:23:55.998Z,18.28
2018-12-31T05:24:56.046Z,18.25
2018-12-31T05:25:55.859Z,18.3
2018-12-31T05:26:56.076Z,18.32
2018-12-31T05:27:56.111Z,18.33
2018-12-31T05:28:56.054Z,18.35
2018-12-31T05:29:56.146Z,18.35
2018-12-31T05:30:55.985Z,18.39
2018-12-31T05:31:56.060Z,18.39
2018-12-31T05:32:56.008Z,18.39
2018-12-31T05:33:56.240Z,18.4
2018-12-31T05:34:56.022Z,18.4
2018-12-31T05:35:56.135Z,18.43
2018-12-31T05:36:56.349Z,18.44
2018-12-31T05:37:56.091Z,18.47
2018-12-31T05:38:56.036Z,18.49
2018-12-31T05:39:56.187Z,18.5
2018-12-31T05:40:55.914Z,18.5
2018-12-31T05:41:56.139Z,18.5
2018-12-31T05:42:55.833Z,18.53
2018-12-31T05:43:56.292Z,18.54
2018-12-31T05:44:56.122Z,18.54
2018-12-31T05:45:55.987Z,18.57
2018-12-31T05:46:56.865Z,18.58
2018-12-31T05:47:55.966Z,18.57
2018-12-31T05:48:56.232Z,18.63
2018-12-31T05:49:56.285Z,18.6
2018-12-31T05:50:56.137Z,18.63
2018-12-31T05:51:56.017Z,18.66
2018-12-31T05:52:56.293Z,18.67
2018-12-31T05:53:56.394Z,18.68
2018-12-31T05:54:56.392Z,18.67
2018-12-31T05:55:55.977Z,18.68
2018-12-31T05:56:55.984Z,18.71
2018-12-31T05:57:56.183Z,18.73
2018-12-31T05:58:55.922Z,18.71
2018-12-31T05:59:56.277Z,18.74
2018-12-31T06:00:56.140Z,18.74
2018-12-31T06:01:56.252Z,18.77
2018-12-31T06:02:55.766Z,18.8
2018-12-31T06:03:56.340Z,18.78
2018-12-31T06:04:56.359Z,18.78
2018-12-31T06:05:56.255Z,18.81
2018-12-31T06:06:56.251Z,18.83
2018-12-31T06:07:56.147Z,18.83
2018-12-31T06:08:56.019Z,18.84
2018-12-31T06:09:56.284Z,18.87
2018-12-31T06:10:55.902Z,18.84
2018-12-31T06:11:56.139Z,18.84
2018-12-31T06:12:56.456Z,18.85
2018-12-31T06:13:56.174Z,18.87
2018-12-31T06:14:56.163Z,18.88
2018-12-31T06:15:55.846Z,18.9
2018-12-31T06:16:56.073Z,18.9
2018-12-31T06:17:56.781Z,18.91
2018-12-31T06:18:56.250Z,18.9
2018-12-31T06:19:56.076Z,18.91
2018-12-31T06:20:56.065Z,18.91
2018-12-31T06:21:56.146Z,18.95
2018-12-31T06:22:56.287Z,18.94
2018-12-31T06:23:56.877Z,18.92
2018-12-31T06:24:56.186Z,18.97
2018-12-31T06:25:56.379Z,18.95
2018-12-31T06:26:56.025Z,18.95
2018-12-31T06:27:56.333Z,18.98
2018-12-31T06:28:56.136Z,18.98
2018-12-31T06:29:56.480Z,18.98
2018-12-31T06:30:56.258Z,18.97
2018-12-31T06:31:56.457Z,18.99
2018-12-31T06:32:56.167Z,19.01
2018-12-31T06:33:56.712Z,18.99
2018-12-31T06:34:55.896Z,19.01
2018-12-31T06:35:56.546Z,19.03
2018-12-31T06:36:56.395Z,19.01
2018-12-31T06:37:56.177Z,19.03
2018-12-31T06:38:56.171Z,19.03
2018-12-31T06:39:56.314Z,19.02
2018-12-31T06:40:56.250Z,19.03
2018-12-31T06:41:56.030Z,19.06
2018-12-31T06:42:55.850Z,19.05
2018-12-31T06:43:56.919Z,19.06
2018-12-31T06:44:56.274Z,19.08
2018-12-31T06:45:56.363Z,19.06
2018-12-31T06:46:56.189Z,19.06
2018-12-31T06:47:55.952Z,19.09
2018-12-31T06:48:55.957Z,19.09
2018-12-31T06:49:56.067Z,19.11
2018-12-31T06:50:56.256Z,19.12
2018-12-31T06:51:56.200Z,19.12
2018-12-31T06:52:57.898Z,19.13
2018-12-31T06:53:56.441Z,19.15
2018-12-31T06:54:55.902Z,19.13
2018-12-31T06:55:56.150Z,19.13
2018-12-31T06:56:56.130Z,19.16
2018-12-31T06:57:55.876Z,19.16
2018-12-31T06:58:56.243Z,19.16
2018-12-31T06:59:55.965Z,19.15
2018-12-31T07:00:56.123Z,19.16
2018-12-31T07:01:55.861Z,19.19
2018-12-31T07:02:56.078Z,19.2
2018-12-31T07:03:55.897Z,19.19
2018-12-31T07:04:55.930Z,19.2
2018-12-31T07:05:55.959Z,19.22
2018-12-31T07:06:55.818Z,19.23
2018-12-31T07:07:56.216Z,19.22
2018-12-31T07:08:55.985Z,19.23
2018-12-31T07:09:56.004Z,19.23
2018-12-31T07:10:56.279Z,19.23
2018-12-31T07:11:55.911Z,19.23
2018-12-31T07:12:56.266Z,19.25
2018-12-31T07:13:55.943Z,19.26
2018-12-31T07:14:56.010Z,19.27
2018-12-31T07:15:56.160Z,19.27
2018-12-31T07:16:56.029Z,19.27
2018-12-31T07:17:56.058Z,19.25
2018-12-31T07:18:56.057Z,19.27
2018-12-31T07:19:56.490Z,19.29
2018-12-31T07:20:56.198Z,19.29
2018-12-31T07:21:56.064Z,19.32
2018-12-31T07:22:55.956Z,19.29
2018-12-31T07:23:55.817Z,19.3
2018-12-31T07:24:56.203Z,19.3
2018-12-31T07:25:56.217Z,19.29
2018-12-31T07:26:56.764Z,19.3
2018-12-31T07:27:56.482Z,19.32
2018-12-31T07:28:56.227Z,19.33
2018-12-31T07:29:56.871Z,19.35
2018-12-31T07:30:56.706Z,19.36
2018-12-31T07:31:56.307Z,19.32
2018-12-31T07:32:56.226Z,19.35
2018-12-31T07:33:55.802Z,19.36
2018-12-31T07:34:56.092Z,19.36
2018-12-31T07:35:56.722Z,19.36
2018-12-31T07:36:56.324Z,19.36
2018-12-31T07:37:56.060Z,19.36
2018-12-31T07:38:55.970Z,19.37
2018-12-31T07:39:55.875Z,19.4
2018-12-31T07:40:55.894Z,19.42
2018-12-31T07:41:55.902Z,19.4
2018-12-31T07:42:56.259Z,19.4
2018-12-31T07:43:56.032Z,19.42
2018-12-31T07:44:55.920Z,19.43
2018-12-31T07:45:55.925Z,19.45
2018-12-31T07:46:56.347Z,19.45
2018-12-31T07:47:56.046Z,19.43
2018-12-31T07:48:56.390Z,19.45
2018-12-31T07:49:56.179Z,19.45
2018-12-31T07:50:56.110Z,19.47
2018-12-31T07:51:55.927Z,19.47
2018-12-31T07:52:56.411Z,19.46
2018-12-31T07:53:56.095Z,19.47
2018-12-31T07:54:56.028Z,19.52
2018-12-31T07:55:56.221Z,19.47
2018-12-31T07:56:56.135Z,19.49
2018-12-31T07:57:56.041Z,19.52
2018-12-31T07:58:55.846Z,19.5
2018-12-31T07:59:56.116Z,19.49
2018-12-31T08:00:55.730Z,19.52
2018-12-31T08:01:55.883Z,19.52
2018-12-31T08:02:55.975Z,19.53
2018-12-31T08:03:56.308Z,19.53
2018-12-31T08:04:56.321Z,19.53
2018-12-31T08:05:55.997Z,19.53
2018-12-31T08:06:56.301Z,19.53
2018-12-31T08:07:56.261Z,19.52
2018-12-31T08:08:55.923Z,19.54
2018-12-31T08:09:56.193Z,19.57
2018-12-31T08:10:55.815Z,19.52
2018-12-31T08:11:56.081Z,19.53
2018-12-31T08:12:55.935Z,19.53
2018-12-31T08:13:55.889Z,19.52
2018-12-31T08:14:55.898Z,19.53
2018-12-31T08:15:55.904Z,19.53
2018-12-31T08:16:56.457Z,19.54
2018-12-31T08:17:55.840Z,19.54
2018-12-31T08:18:56.316Z,19.52
2018-12-31T08:19:55.976Z,19.56
2018-12-31T08:20:56.190Z,19.54
2018-12-31T08:21:56.399Z,19.52
2018-12-31T08:22:55.835Z,19.54
2018-12-31T08:23:56.572Z,19.56
2018-12-31T08:24:55.807Z,19.54
2018-12-31T08:25:55.808Z,19.56
2018-12-31T08:26:56.231Z,19.54
2018-12-31T08:27:56.237Z,19.53
2018-12-31T08:28:56.461Z,19.54
2018-12-31T08:29:55.806Z,19.57
2018-12-31T08:30:56.001Z,19.57
2018-12-31T08:31:56.020Z,19.57
2018-12-31T08:32:56.156Z,19.58
2018-12-31T08:33:56.081Z,19.6
2018-12-31T08:34:56.247Z,19.57
2018-12-31T08:35:56.156Z,19.57
2018-12-31T08:36:56.344Z,19.58
2018-12-31T08:37:56.315Z,19.57
2018-12-31T08:38:56.873Z,19.57
2018-12-31T08:39:56.037Z,19.58
2018-12-31T08:40:55.865Z,19.57
2018-12-31T08:41:55.929Z,19.6
2018-12-31T08:42:56.362Z,19.61
2018-12-31T08:43:56.087Z,19.58
2018-12-31T08:44:55.756Z,19.6
2018-12-31T08:45:56.018Z,19.63
2018-12-31T08:46:55.861Z,19.58
2018-12-31T08:47:55.943Z,19.6
2018-12-31T08:48:56.124Z,19.6
2018-12-31T08:49:55.979Z,19.63
2018-12-31T08:50:55.970Z,19.6
2018-12-31T08:51:55.725Z,19.63
2018-12-31T08:52:55.999Z,19.61
2018-12-31T08:53:56.063Z,19.6
2018-12-31T08:54:55.733Z,19.61
2018-12-31T08:55:56.143Z,19.58
2018-12-31T08:56:56.022Z,19.6
2018-12-31T08:57:56.214Z,19.61
2018-12-31T08:58:56.162Z,19.6
2018-12-31T08:59:55.798Z,19.61
2018-12-31T09:00:55.853Z,19.58
2018-12-31T09:01:55.698Z,19.63
2018-12-31T09:02:55.960Z,19.61
2018-12-31T09:03:56.095Z,19.6
2018-12-31T09:04:56.427Z,19.6
2018-12-31T09:05:56.342Z,19.6
2018-12-31T09:06:56.188Z,19.63
2018-12-31T09:07:56.754Z,19.63
2018-12-31T09:08:56.171Z,19.63
2018-12-31T09:09:56.318Z,19.61
2018-12-31T09:10:56.511Z,19.61
2018-12-31T09:11:55.817Z,19.61
2018-12-31T09:12:55.963Z,19.61
2018-12-31T09:13:56.555Z,19.63
2018-12-31T09:14:55.985Z,19.63
2018-12-31T09:15:55.974Z,19.61
2018-12-31T09:16:56.531Z,19.64
2018-12-31T09:17:56.012Z,19.63
2018-12-31T09:18:56.396Z,19.65
2018-12-31T09:19:56.317Z,19.61
2018-12-31T09:20:56.306Z,19.64
2018-12-31T09:21:56.550Z,19.65
2018-12-31T09:22:56.046Z,19.65
2018-12-31T09:23:56.270Z,19.67
2018-12-31T09:24:56.233Z,19.65
2018-12-31T09:25:56.722Z,19.68
2018-12-31T09:26:56.063Z,19.68
2018-12-31T09:27:55.970Z,19.7
2018-12-31T09:28:56.211Z,19.67
2018-12-31T09:29:56.193Z,19.7
2018-12-31T09:30:56.311Z,19.68
2018-12-31T09:31:56.580Z,19.68
2018-12-31T09:32:56.711Z,19.7
2018-12-31T09:33:55.945Z,19.71
2018-12-31T09:34:55.986Z,19.73
2018-12-31T09:35:55.781Z,19.71
2018-12-31T09:36:56.417Z,19.71
2018-12-31T09:37:56.352Z,19.73
2018-12-31T09:38:55.806Z,19.73
2018-12-31T09:39:56.388Z,19.74
2018-12-31T09:40:56.109Z,19.74
2018-12-31T09:41:55.996Z,19.74
2018-12-31T09:42:56.245Z,19.74
2018-12-31T09:43:56.407Z,19.75
2018-12-31T09:44:56.287Z,19.74
2018-12-31T09:45:56.093Z,19.75
2018-12-31T09:46:56.333Z,19.78
2018-12-31T09:47:55.799Z,19.77
2018-12-31T09:48:56.367Z,19.78
2018-12-31T09:49:56.016Z,19.78
2018-12-31T09:50:55.973Z,19.78
2018-12-31T09:51:56.161Z,19.8
2018-12-31T09:52:56.031Z,19.8
2018-12-31T09:53:56.014Z,19.78
2018-12-31T09:54:56.283Z,19.8
2018-12-31T09:55:56.383Z,19.8
2018-12-31T09:56:56.364Z,19.8
2018-12-31T09:57:56.094Z,19.8
2018-12-31T09:58:55.798Z,19.81
2018-12-31T09:59:56.576Z,19.82
2018-12-31T10:00:55.793Z,19.82
2018-12-31T10:01:55.761Z,19.82
2018-12-31T10:02:55.914Z,19.81
2018-12-31T10:03:56.175Z,19.84
2018-12-31T10:04:56.845Z,19.82
2018-12-31T10:05:56.385Z,19.84
2018-12-31T10:06:56.226Z,19.82
2018-12-31T10:07:55.907Z,19.85
2018-12-31T10:08:55.969Z,19.85
2018-12-31T10:09:56.055Z,19.84
2018-12-31T10:10:56.613Z,19.85
2018-12-31T10:11:56.046Z,19.85
2018-12-31T10:12:56.263Z,19.84
2018-12-31T10:13:56.414Z,19.85
2018-12-31T10:14:55.961Z,19.85
2018-12-31T10:15:56.223Z,19.85
2018-12-31T10:16:56.150Z,19.86
2018-12-31T10:17:55.912Z,19.86
2018-12-31T10:18:56.321Z,19.89
2018-12-31T10:19:56.099Z,19.84
2018-12-31T10:20:55.870Z,19.86
2018-12-31T10:21:55.930Z,19.88
2018-12-31T10:22:56.079Z,19.86
2018-12-31T10:23:56.326Z,19.86
2018-12-31T10:24:55.917Z,19.86
2018-12-31T10:25:56.110Z,19.89
2018-12-31T10:26:55.955Z,19.91
2018-12-31T10:27:55.811Z,19.92
2018-12-31T10:28:56.097Z,19.89
2018-12-31T10:29:55.794Z,19.92
2018-12-31T10:30:56.181Z,19.91
2018-12-31T10:31:56.169Z,19.93
2018-12-31T10:32:55.874Z,19.93
2018-12-31T10:33:56.128Z,19.95
2018-12-31T10:34:55.924Z,19.95
2018-12-31T10:35:55.785Z,19.95
2018-12-31T10:36:55.986Z,19.95
2018-12-31T10:37:55.973Z,19.96
2018-12-31T10:38:55.994Z,19.98
2018-12-31T10:39:55.818Z,20.01
2018-12-31T10:40:55.949Z,20.02
2018-12-31T10:41:56.198Z,20.02
2018-12-31T10:42:55.743Z,20.02
2018-12-31T10:43:56.106Z,20.02
2018-12-31T10:44:55.685Z,20.05
2018-12-31T10:45:56.270Z,20.05
2018-12-31T10:46:56.311Z,20.07
2018-12-31T10:47:56.000Z,20.07
2018-12-31T10:48:55.761Z,20.09
2018-12-31T10:49:56.354Z,20.09
2018-12-31T10:50:55.980Z,20.09
2018-12-31T10:51:56.883Z,20.08
2018-12-31T10:52:55.927Z,20.08
2018-12-31T10:53:55.952Z,20.11
2018-12-31T10:54:56.296Z,20.11
2018-12-31T10:55:56.666Z,20.11
2018-12-31T10:56:56.091Z,20.11
2018-12-31T10:57:56.193Z,20.13
2018-12-31T10:58:56.457Z,20.11
2018-12-31T10:59:56.076Z,20.13
2018-12-31T11:00:55.731Z,20.13
2018-12-31T11:01:56.641Z,20.12
2018-12-31T11:02:56.596Z,20.13
2018-12-31T11:03:55.854Z,20.16
2018-12-31T11:04:55.839Z,20.15
2018-12-31T11:05:56.033Z,20.16
2018-12-31T11:06:55.829Z,20.16
2018-12-31T11:07:56.871Z,20.15
2018-12-31T11:08:56.059Z,20.18
2018-12-31T11:09:55.848Z,20.16
2018-12-31T11:10:56.546Z,20.16
2018-12-31T11:11:55.834Z,20.16
2018-12-31T11:12:55.865Z,20.15
2018-12-31T11:13:56.151Z,20.16
2018-12-31T11:14:56.749Z,20.16
2018-12-31T11:15:55.944Z,20.13
2018-12-31T11:16:55.861Z,20.13
2018-12-31T11:17:57.053Z,20.12
2018-12-31T11:18:56.080Z,20.11
2018-12-31T11:19:56.729Z,20.11
2018-12-31T11:20:55.657Z,20.09
2018-12-31T11:21:56.195Z,20.09
2018-12-31T11:22:56.115Z,20.08
2018-12-31T11:23:56.258Z,20.08
2018-12-31T11:24:56.045Z,20.09
2018-12-31T11:25:55.962Z,20.11
2018-12-31T11:26:56.382Z,20.08
2018-12-31T11:27:56.128Z,20.08
2018-12-31T11:28:55.649Z,20.05
2018-12-31T11:29:56.023Z,20.07
2018-12-31T11:30:55.878Z,20.05
2018-12-31T11:31:56.155Z,20.07
2018-12-31T11:32:55.780Z,20.07
2018-12-31T11:33:55.894Z,20.05
2018-12-31T11:34:55.921Z,20.04
2018-12-31T11:35:56.272Z,20.04
2018-12-31T11:36:55.819Z,20.05
2018-12-31T11:37:56.719Z,20.05
2018-12-31T11:38:56.042Z,20.04
2018-12-31T11:39:55.795Z,20.05
2018-12-31T11:40:55.916Z,20.02
2018-12-31T11:41:56.176Z,20.02
2018-12-31T11:42:55.878Z,20.02
2018-12-31T11:43:56.868Z,20.02
2018-12-31T11:44:55.837Z,20.02
2018-12-31T11:45:56.338Z,20.04
2018-12-31T11:46:56.010Z,20.01
2018-12-31T11:47:55.709Z,20.02
2018-12-31T11:48:55.969Z,20.01
2018-12-31T11:49:56.252Z,20.01
2018-12-31T11:50:56.411Z,19.99
2018-12-31T11:51:56.519Z,20.02
2018-12-31T11:52:56.302Z,20.04
2018-12-31T11:53:56.152Z,20.02
2018-12-31T11:54:56.194Z,20.01
2018-12-31T11:55:55.744Z,19.99
2018-12-31T11:56:56.311Z,20.01
2018-12-31T11:57:55.794Z,19.99
2018-12-31T11:58:56.298Z,19.99
2018-12-31T11:59:56.185Z,19.99
2018-12-31T12:00:56.186Z,20.02
2018-12-31T12:01:56.214Z,20.01
2018-12-31T12:02:56.196Z,20.02
2018-12-31T12:03:55.912Z,20.04
2018-12-31T12:04:55.939Z,20.04
2018-12-31T12:05:56.681Z,20.05
2018-12-31T12:06:56.303Z,20.07
2018-12-31T12:07:56.033Z,20.05
2018-12-31T12:08:56.155Z,20.09
2018-12-31T12:09:56.029Z,20.09
2018-12-31T12:10:55.918Z,20.11
2018-12-31T12:11:55.859Z,20.11
2018-12-31T12:12:56.805Z,20.15
2018-12-31T12:13:56.363Z,20.12
2018-12-31T12:14:56.361Z,20.11
2018-12-31T12:15:57.778Z,20.12
2018-12-31T12:16:55.910Z,20.09
2018-12-31T12:17:56.408Z,20.11
2018-12-31T12:18:57.570Z,20.09
2018-12-31T12:19:55.948Z,20.09
2018-12-31T12:20:56.430Z,20.09
2018-12-31T12:21:55.815Z,20.09
2018-12-31T12:22:56.165Z,20.11
2018-12-31T12:23:55.665Z,20.09
2018-12-31T12:24:56.220Z,20.11
2018-12-31T12:25:56.028Z,20.09
2018-12-31T12:26:55.834Z,20.09
2018-12-31T12:27:58.254Z,20.11
2018-12-31T12:28:55.908Z,20.11
2018-12-31T12:29:56.393Z,20.09
2018-12-31T12:30:55.842Z,20.08
2018-12-31T12:31:56.440Z,20.08
2018-12-31T12:32:55.861Z,20.12
2018-12-31T12:33:56.296Z,20.11
2018-12-31T12:34:56.206Z,20.11
2018-12-31T12:35:55.866Z,20.11
2018-12-31T12:36:58.935Z,20.12
2018-12-31T12:37:55.789Z,20.15
2018-12-31T12:38:56.693Z,20.13
2018-12-31T12:39:56.349Z,20.15
2018-12-31T12:40:55.997Z,20.15
2018-12-31T12:41:56.185Z,20.15
2018-12-31T12:42:55.963Z,20.15
2018-12-31T12:43:56.213Z,20.16
2018-12-31T12:44:55.814Z,20.18
2018-12-31T12:45:56.146Z,20.13
2018-12-31T12:46:56.125Z,20.15
2018-12-31T12:47:56.532Z,20.13
2018-12-31T12:48:55.693Z,20.13
2018-12-31T12:49:55.910Z,20.11
2018-12-31T12:50:56.426Z,20.12
2018-12-31T12:51:55.877Z,20.12
2018-12-31T12:52:55.685Z,20.11
2018-12-31T12:53:56.208Z,20.13
2018-12-31T12:54:55.788Z,20.13
2018-12-31T12:55:56.003Z,20.08